sensor_id;sensor_type;location;lat;lon;timestamp;pressure;altitude;pressure_sealevel;temperature;humidity
14253;BME280;7210;51.502;10.722;2023-05-03T00:00:13;100794.22;;;5.17;81.98
14253;BME280;7210;51.502;10.722;2023-05-03T00:02:42;100784.88;;;5.06;82.39
14253;BME280;7210;51.502;10.722;2023-05-03T00:05:11;100779.94;;;4.95;82.76
14253;BME280;7210;51.502;10.722;2023-05-03T00:07:42;100791.06;;;4.89;82.86
14253;BME280;7210;51.502;10.722;2023-05-03T00:10:10;100792.34;;;4.77;83.62
14253;BME280;7210;51.502;10.722;2023-05-03T00:12:42;100800.06;;;4.79;83.95
14253;BME280;7210;51.502;10.722;2023-05-03T00:15:10;100788.84;;;4.61;84.21
14253;BME280;7210;51.502;10.722;2023-05-03T00:17:37;100812.94;;;4.64;84.63
14253;BME280;7210;51.502;10.722;2023-05-03T00:20:06;100800.97;;;4.54;85.03
14253;BME280;7210;51.502;10.722;2023-05-03T00:22:35;100796.34;;;4.48;85.08
14253;BME280;7210;51.502;10.722;2023-05-03T00:25:07;100787.31;;;4.34;85.56
14253;BME280;7210;51.502;10.722;2023-05-03T00:27:35;100781.53;;;4.23;85.89
14253;BME280;7210;51.502;10.722;2023-05-03T00:30:04;100777.22;;;4.14;85.97
14253;BME280;7210;51.502;10.722;2023-05-03T00:32:32;100767.81;;;3.95;86.31
14253;BME280;7210;51.502;10.722;2023-05-03T00:34:59;100764.00;;;3.90;86.53
14253;BME280;7210;51.502;10.722;2023-05-03T00:37:26;100779.09;;;3.96;86.84
14253;BME280;7210;51.502;10.722;2023-05-03T00:39:56;100765.34;;;3.94;86.80
14253;BME280;7210;51.502;10.722;2023-05-03T00:42:23;100766.34;;;3.93;87.04
14253;BME280;7210;51.502;10.722;2023-05-03T00:44:50;100768.44;;;3.89;87.41
14253;BME280;7210;51.502;10.722;2023-05-03T00:47:17;100773.50;;;3.91;87.54
14253;BME280;7210;51.502;10.722;2023-05-03T00:49:45;100768.72;;;3.86;87.73
14253;BME280;7210;51.502;10.722;2023-05-03T00:52:12;100750.69;;;3.75;87.94
14253;BME280;7210;51.502;10.722;2023-05-03T00:54:42;100748.50;;;3.63;87.97
14253;BME280;7210;51.502;10.722;2023-05-03T00:57:12;100732.41;;;3.50;88.16
14253;BME280;7210;51.502;10.722;2023-05-03T00:59:39;100735.94;;;3.41;88.43
14253;BME280;7210;51.502;10.722;2023-05-03T01:02:07;100744.03;;;3.30;88.76
14253;BME280;7210;51.502;10.722;2023-05-03T01:04:35;100737.53;;;3.17;88.78
14253;BME280;7210;51.502;10.722;2023-05-03T01:07:11;100727.19;;;3.07;89.00
14253;BME280;7210;51.502;10.722;2023-05-03T01:09:58;100728.06;;;2.98;89.27
14253;BME280;7210;51.502;10.722;2023-05-03T01:12:49;100728.69;;;2.92;89.71
14253;BME280;7210;51.502;10.722;2023-05-03T01:15:42;100723.75;;;2.89;89.90
14253;BME280;7210;51.502;10.722;2023-05-03T01:18:14;100730.25;;;2.85;90.14
14253;BME280;7210;51.502;10.722;2023-05-03T01:20:47;100735.09;;;2.80;90.47
14253;BME280;7210;51.502;10.722;2023-05-03T01:23:28;100727.84;;;2.74;90.59
14253;BME280;7210;51.502;10.722;2023-05-03T01:26:18;100736.97;;;2.70;90.88
14253;BME280;7210;51.502;10.722;2023-05-03T01:28:48;100736.13;;;2.70;91.30
14253;BME280;7210;51.502;10.722;2023-05-03T01:31:21;100732.47;;;2.63;91.48
14253;BME280;7210;51.502;10.722;2023-05-03T01:34:04;100743.22;;;2.60;91.55
14253;BME280;7210;51.502;10.722;2023-05-03T01:36:42;100747.25;;;2.54;91.84
14253;BME280;7210;51.502;10.722;2023-05-03T01:39:18;100746.03;;;2.49;92.13
14253;BME280;7210;51.502;10.722;2023-05-03T01:41:50;100747.16;;;2.46;92.29
14253;BME280;7210;51.502;10.722;2023-05-03T01:44:19;100741.41;;;2.43;92.74
14253;BME280;7210;51.502;10.722;2023-05-03T01:46:47;100741.16;;;2.36;92.68
14253;BME280;7210;51.502;10.722;2023-05-03T01:49:18;100751.97;;;2.41;93.03
14253;BME280;7210;51.502;10.722;2023-05-03T01:51:45;100741.16;;;2.36;93.29
14253;BME280;7210;51.502;10.722;2023-05-03T01:54:12;100739.81;;;2.32;93.47
14253;BME280;7210;51.502;10.722;2023-05-03T01:56:39;100738.97;;;2.32;93.76
14253;BME280;7210;51.502;10.722;2023-05-03T01:59:13;100737.22;;;2.32;93.85
14253;BME280;7210;51.502;10.722;2023-05-03T02:01:42;100740.78;;;2.31;93.93
14253;BME280;7210;51.502;10.722;2023-05-03T02:04:09;100736.53;;;2.30;93.90
14253;BME280;7210;51.502;10.722;2023-05-03T02:09:28;100754.31;;;2.44;94.57
14253;BME280;7210;51.502;10.722;2023-05-03T02:11:55;100748.66;;;2.49;94.35
14253;BME280;7210;51.502;10.722;2023-05-03T02:14:23;100738.34;;;2.47;94.52
14253;BME280;7210;51.502;10.722;2023-05-03T02:19:41;100730.03;;;2.34;94.71
14253;BME280;7210;51.502;10.722;2023-05-03T02:22:08;100727.59;;;2.33;94.64
14253;BME280;7210;51.502;10.722;2023-05-03T02:24:35;100724.47;;;2.29;94.63
14253;BME280;7210;51.502;10.722;2023-05-03T02:27:05;100731.31;;;2.30;94.99
14253;BME280;7210;51.502;10.722;2023-05-03T02:29:36;100724.47;;;2.29;95.10
14253;BME280;7210;51.502;10.722;2023-05-03T02:32:10;100715.72;;;2.21;95.09
14253;BME280;7210;51.502;10.722;2023-05-03T02:34:38;100712.88;;;2.14;95.32
14253;BME280;7210;51.502;10.722;2023-05-03T02:37:08;100713.09;;;2.21;95.39
14253;BME280;7210;51.502;10.722;2023-05-03T02:39:41;100718.47;;;2.19;95.35
14253;BME280;7210;51.502;10.722;2023-05-03T02:42:09;100719.28;;;2.20;95.54
14253;BME280;7210;51.502;10.722;2023-05-03T02:44:43;100714.78;;;2.12;95.79
14253;BME280;7210;51.502;10.722;2023-05-03T02:47:11;100709.22;;;2.07;95.91
14253;BME280;7210;51.502;10.722;2023-05-03T02:49:41;100708.25;;;2.08;95.63
14253;BME280;7210;51.502;10.722;2023-05-03T02:52:09;100709.47;;;2.04;95.27
14253;BME280;7210;51.502;10.722;2023-05-03T02:54:36;100694.72;;;1.95;95.74
14253;BME280;7210;51.502;10.722;2023-05-03T02:57:09;100688.16;;;1.91;95.29
14253;BME280;7210;51.502;10.722;2023-05-03T02:59:37;100689.69;;;1.84;95.26
14253;BME280;7210;51.502;10.722;2023-05-03T03:02:06;100685.72;;;1.80;95.35
14253;BME280;7210;51.502;10.722;2023-05-03T03:04:34;100682.44;;;1.78;95.32
14253;BME280;7210;51.502;10.722;2023-05-03T03:07:01;100683.13;;;1.80;95.37
14253;BME280;7210;51.502;10.722;2023-05-03T03:09:29;100679.44;;;1.73;95.70
14253;BME280;7210;51.502;10.722;2023-05-03T03:11:59;100672.06;;;1.69;95.22
14253;BME280;7210;51.502;10.722;2023-05-03T03:14:27;100676.16;;;1.71;95.78
14253;BME280;7210;51.502;10.722;2023-05-03T03:16:54;100682.88;;;1.74;95.69
14253;BME280;7210;51.502;10.722;2023-05-03T03:19:23;100683.97;;;1.71;96.25
14253;BME280;7210;51.502;10.722;2023-05-03T03:21:50;100685.25;;;1.67;95.97
14253;BME280;7210;51.502;10.722;2023-05-03T03:24:18;100688.13;;;1.64;96.06
14253;BME280;7210;51.502;10.722;2023-05-03T03:26:46;100686.38;;;1.55;96.59
14253;BME280;7210;51.502;10.722;2023-05-03T03:29:13;100682.28;;;1.43;96.46
14253;BME280;7210;51.502;10.722;2023-05-03T03:31:44;100682.47;;;1.32;96.31
14253;BME280;7210;51.502;10.722;2023-05-03T03:34:12;100682.34;;;1.24;96.49
14253;BME280;7210;51.502;10.722;2023-05-03T03:36:41;100693.06;;;1.21;96.76
14253;BME280;7210;51.502;10.722;2023-05-03T03:39:09;100692.22;;;1.11;96.83
14253;BME280;7210;51.502;10.722;2023-05-03T03:41:36;100706.22;;;1.10;97.03
14253;BME280;7210;51.502;10.722;2023-05-03T03:44:04;100694.16;;;1.00;97.65
14253;BME280;7210;51.502;10.722;2023-05-03T03:46:31;100703.22;;;1.05;97.62
14253;BME280;7210;51.502;10.722;2023-05-03T03:49:00;100717.03;;;1.06;97.73
14253;BME280;7210;51.502;10.722;2023-05-03T03:51:29;100730.06;;;1.15;98.48
14253;BME280;7210;51.502;10.722;2023-05-03T03:53:59;100737.72;;;1.26;98.67
14253;BME280;7210;51.502;10.722;2023-05-03T03:56:31;100740.72;;;1.31;98.93
14253;BME280;7210;51.502;10.722;2023-05-03T03:58:59;100744.84;;;1.34;99.28
14253;BME280;7210;51.502;10.722;2023-05-03T04:01:29;100746.06;;;1.39;99.14
14253;BME280;7210;51.502;10.722;2023-05-03T04:03:56;100750.84;;;1.44;99.88
14253;BME280;7210;51.502;10.722;2023-05-03T04:06:24;100746.75;;;1.41;99.47
14253;BME280;7210;51.502;10.722;2023-05-03T04:08:53;100739.22;;;1.38;99.82
14253;BME280;7210;51.502;10.722;2023-05-03T04:11:21;100741.81;;;1.38;100.00
14253;BME280;7210;51.502;10.722;2023-05-03T04:13:54;100746.75;;;1.41;100.00
14253;BME280;7210;51.502;10.722;2023-05-03T04:16:21;100751.69;;;1.44;100.00
14253;BME280;7210;51.502;10.722;2023-05-03T04:18:49;100757.16;;;1.51;100.00
14253;BME280;7210;51.502;10.722;2023-05-03T04:21:16;100753.97;;;1.57;100.00
14253;BME280;7210;51.502;10.722;2023-05-03T04:23:45;100745.19;;;1.58;100.00
14253;BME280;7210;51.502;10.722;2023-05-03T04:26:14;100758.09;;;1.59;100.00
14253;BME280;7210;51.502;10.722;2023-05-03T04:28:44;100751.91;;;1.60;100.00
14253;BME280;7210;51.502;10.722;2023-05-03T04:31:12;100759.16;;;1.66;100.00
14253;BME280;7210;51.502;10.722;2023-05-03T04:33:41;100766.69;;;1.69;100.00
14253;BME280;7210;51.502;10.722;2023-05-03T04:36:09;100762.28;;;1.70;100.00
14253;BME280;7210;51.502;10.722;2023-05-03T04:38:42;100769.69;;;1.74;100.00
14253;BME280;7210;51.502;10.722;2023-05-03T04:41:10;100770.78;;;1.81;100.00
14253;BME280;7210;51.502;10.722;2023-05-03T04:43:38;100770.88;;;1.89;100.00
14253;BME280;7210;51.502;10.722;2023-05-03T04:46:07;100769.34;;;1.96;100.00
14253;BME280;7210;51.502;10.722;2023-05-03T04:48:35;100765.38;;;2.02;100.00
14253;BME280;7210;51.502;10.722;2023-05-03T04:51:03;100758.34;;;2.02;100.00
14253;BME280;7210;51.502;10.722;2023-05-03T04:53:32;100763.00;;;2.08;100.00
14253;BME280;7210;51.502;10.722;2023-05-03T04:56:06;100765.03;;;2.14;100.00
14253;BME280;7210;51.502;10.722;2023-05-03T04:58:37;100761.84;;;2.20;100.00
14253;BME280;7210;51.502;10.722;2023-05-03T05:01:07;100765.38;;;2.29;100.00
14253;BME280;7210;51.502;10.722;2023-05-03T05:03:34;100778.50;;;2.37;100.00
14253;BME280;7210;51.502;10.722;2023-05-03T05:06:08;100765.25;;;2.48;100.00
14253;BME280;7210;51.502;10.722;2023-05-03T05:08:39;100766.84;;;2.58;100.00
14253;BME280;7210;51.502;10.722;2023-05-03T05:11:09;100780.81;;;2.67;100.00
14253;BME280;7210;51.502;10.722;2023-05-03T05:13:37;100770.75;;;2.72;100.00
14253;BME280;7210;51.502;10.722;2023-05-03T05:16:07;100775.91;;;2.81;100.00
14253;BME280;7210;51.502;10.722;2023-05-03T05:18:35;100767.16;;;2.90;100.00
14253;BME280;7210;51.502;10.722;2023-05-03T05:21:05;100763.06;;;3.05;100.00
14253;BME280;7210;51.502;10.722;2023-05-03T05:23:34;100770.69;;;3.16;100.00
14253;BME280;7210;51.502;10.722;2023-05-03T05:26:02;100764.41;;;3.27;100.00
14253;BME280;7210;51.502;10.722;2023-05-03T05:28:31;100772.84;;;3.38;100.00
14253;BME280;7210;51.502;10.722;2023-05-03T05:30:59;100774.44;;;3.57;100.00
14253;BME280;7210;51.502;10.722;2023-05-03T05:33:27;100782.41;;;3.72;100.00
14253;BME280;7210;51.502;10.722;2023-05-03T05:35:56;100773.16;;;3.86;100.00
14253;BME280;7210;51.502;10.722;2023-05-03T05:38:23;100765.88;;;3.97;100.00
14253;BME280;7210;51.502;10.722;2023-05-03T05:40:54;100770.66;;;4.10;100.00
14253;BME280;7210;51.502;10.722;2023-05-03T05:43:23;100765.00;;;4.22;100.00
14253;BME280;7210;51.502;10.722;2023-05-03T05:45:50;100767.31;;;4.33;99.68
14253;BME280;7210;51.502;10.722;2023-05-03T05:48:18;100752.31;;;4.43;99.30
14253;BME280;7210;51.502;10.722;2023-05-03T05:50:48;100752.84;;;4.47;99.02
14253;BME280;7210;51.502;10.722;2023-05-03T05:53:17;100752.16;;;4.53;98.81
14253;BME280;7210;51.502;10.722;2023-05-03T05:55:51;100742.03;;;4.58;98.38
14253;BME280;7210;51.502;10.722;2023-05-03T05:58:19;100741.75;;;4.69;98.35
14253;BME280;7210;51.502;10.722;2023-05-03T06:00:50;100755.03;;;4.83;98.60
14253;BME280;7210;51.502;10.722;2023-05-03T06:03:18;100764.41;;;5.02;98.47
14253;BME280;7210;51.502;10.722;2023-05-03T06:05:49;100761.16;;;5.16;98.14
14253;BME280;7210;51.502;10.722;2023-05-03T06:08:16;100755.91;;;5.32;97.58
14253;BME280;7210;51.502;10.722;2023-05-03T06:10:43;100748.03;;;5.40;97.02
14253;BME280;7210;51.502;10.722;2023-05-03T06:13:10;100734.91;;;5.40;96.33
14253;BME280;7210;51.502;10.722;2023-05-03T06:15:38;100739.31;;;5.47;95.79
14253;BME280;7210;51.502;10.722;2023-05-03T06:18:06;100740.44;;;5.61;95.40
14253;BME280;7210;51.502;10.722;2023-05-03T06:20:34;100739.13;;;5.73;94.48
14253;BME280;7210;51.502;10.722;2023-05-03T06:23:07;100727.47;;;5.91;93.65
14253;BME280;7210;51.502;10.722;2023-05-03T06:25:36;100709.06;;;5.99;92.02
14253;BME280;7210;51.502;10.722;2023-05-03T06:28:03;100681.81;;;6.00;90.92
14253;BME280;7210;51.502;10.722;2023-05-03T06:30:33;100686.53;;;6.13;90.49
14253;BME280;7210;51.502;10.722;2023-05-03T06:33:06;100672.03;;;6.25;89.84
14253;BME280;7210;51.502;10.722;2023-05-03T06:35:34;100686.19;;;6.46;89.29
14253;BME280;7210;51.502;10.722;2023-05-03T06:38:02;100689.88;;;6.60;88.76
14253;BME280;7210;51.502;10.722;2023-05-03T06:40:30;100689.13;;;6.74;88.28
14253;BME280;7210;51.502;10.722;2023-05-03T06:42:58;100704.13;;;6.88;87.45
14253;BME280;7210;51.502;10.722;2023-05-03T06:45:40;100695.66;;;7.00;87.24
14253;BME280;7210;51.502;10.722;2023-05-03T06:48:07;100688.50;;;7.09;86.67
14253;BME280;7210;51.502;10.722;2023-05-03T06:50:35;100689.91;;;7.19;85.98
14253;BME280;7210;51.502;10.722;2023-05-03T06:53:05;100679.50;;;7.26;85.50
14253;BME280;7210;51.502;10.722;2023-05-03T06:55:34;100675.88;;;7.41;84.68
14253;BME280;7210;51.502;10.722;2023-05-03T06:58:02;100629.06;;;7.36;83.04
14253;BME280;7210;51.502;10.722;2023-05-03T07:00:35;100626.97;;;7.46;82.74
14253;BME280;7210;51.502;10.722;2023-05-03T07:03:04;100634.44;;;7.57;81.96
14253;BME280;7210;51.502;10.722;2023-05-03T07:05:36;100640.88;;;7.69;81.71
14253;BME280;7210;51.502;10.722;2023-05-03T07:08:03;100624.41;;;7.82;80.30
14253;BME280;7210;51.502;10.722;2023-05-03T07:10:31;100618.09;;;7.91;79.60
14253;BME280;7210;51.502;10.722;2023-05-03T07:12:59;100623.47;;;8.04;79.26
14253;BME280;7210;51.502;10.722;2023-05-03T07:15:26;100621.19;;;8.15;78.64
14253;BME280;7210;51.502;10.722;2023-05-03T07:17:53;100602.97;;;8.14;77.83
14253;BME280;7210;51.502;10.722;2023-05-03T07:20:21;100630.19;;;8.21;78.11
14253;BME280;7210;51.502;10.722;2023-05-03T07:22:48;100646.72;;;8.29;77.46
14253;BME280;7210;51.502;10.722;2023-05-03T07:25:15;100653.06;;;8.35;77.13
14253;BME280;7210;51.502;10.722;2023-05-03T07:27:43;100639.06;;;8.34;76.65
14253;BME280;7210;51.502;10.722;2023-05-03T07:30:12;100648.00;;;8.33;76.51
14253;BME280;7210;51.502;10.722;2023-05-03T07:32:39;100657.13;;;8.37;76.08
14253;BME280;7210;51.502;10.722;2023-05-03T07:35:07;100654.31;;;8.39;75.63
14253;BME280;7210;51.502;10.722;2023-05-03T07:37:36;100652.69;;;8.38;75.30
14253;BME280;7210;51.502;10.722;2023-05-03T07:40:06;100664.88;;;8.39;75.30
14253;BME280;7210;51.502;10.722;2023-05-03T07:42:44;100666.66;;;8.53;74.18
14253;BME280;7210;51.502;10.722;2023-05-03T07:45:13;100659.81;;;8.58;73.86
14253;BME280;7210;51.502;10.722;2023-05-03T07:47:43;100694.97;;;8.65;73.89
14253;BME280;7210;51.502;10.722;2023-05-03T07:50:11;100731.41;;;8.83;73.64
14253;BME280;7210;51.502;10.722;2023-05-03T07:52:39;100724.22;;;8.91;73.34
14253;BME280;7210;51.502;10.722;2023-05-03T07:55:12;100749.09;;;9.03;73.21
14253;BME280;7210;51.502;10.722;2023-05-03T07:57:40;100759.41;;;9.19;72.77
14253;BME280;7210;51.502;10.722;2023-05-03T08:00:09;100780.13;;;9.22;72.80
14253;BME280;7210;51.502;10.722;2023-05-03T08:02:44;100791.59;;;9.36;72.49
14253;BME280;7210;51.502;10.722;2023-05-03T08:05:12;100773.22;;;9.42;71.77
14253;BME280;7210;51.502;10.722;2023-05-03T08:07:40;100734.09;;;9.52;70.62
14253;BME280;7210;51.502;10.722;2023-05-03T08:10:11;100725.19;;;9.60;70.05
14253;BME280;7210;51.502;10.722;2023-05-03T08:12:42;100724.47;;;9.72;69.35
14253;BME280;7210;51.502;10.722;2023-05-03T08:15:14;100744.50;;;9.88;69.17
14253;BME280;7210;51.502;10.722;2023-05-03T08:17:45;100749.88;;;10.01;68.76
14253;BME280;7210;51.502;10.722;2023-05-03T08:20:13;100737.72;;;10.06;67.98
14253;BME280;7210;51.502;10.722;2023-05-03T08:22:40;100726.00;;;10.15;67.11
14253;BME280;7210;51.502;10.722;2023-05-03T08:25:09;100699.56;;;10.15;66.28
14253;BME280;7210;51.502;10.722;2023-05-03T08:27:41;100762.22;;;10.21;66.84
14253;BME280;7210;51.502;10.722;2023-05-03T08:30:09;100819.59;;;10.27;67.30
14253;BME280;7210;51.502;10.722;2023-05-03T08:32:36;100848.25;;;10.30;67.49
14253;BME280;7210;51.502;10.722;2023-05-03T08:35:05;100871.31;;;10.43;67.21
14253;BME280;7210;51.502;10.722;2023-05-03T08:37:38;100851.84;;;10.50;66.56
14253;BME280;7210;51.502;10.722;2023-05-03T08:40:08;100813.66;;;10.59;65.49
14253;BME280;7210;51.502;10.722;2023-05-03T08:42:39;100771.34;;;10.59;64.24
14253;BME280;7210;51.502;10.722;2023-05-03T08:45:10;100790.72;;;10.73;64.16
14253;BME280;7210;51.502;10.722;2023-05-03T08:47:39;100832.69;;;10.82;64.18
14253;BME280;7210;51.502;10.722;2023-05-03T08:50:09;100829.25;;;10.95;63.62
14253;BME280;7210;51.502;10.722;2023-05-03T08:52:39;100867.94;;;11.02;63.93
14253;BME280;7210;51.502;10.722;2023-05-03T08:55:08;100854.53;;;11.04;63.67
14253;BME280;7210;51.502;10.722;2023-05-03T08:57:36;100899.16;;;11.13;63.71
14253;BME280;7210;51.502;10.722;2023-05-03T09:00:06;100923.84;;;11.33;63.21
14253;BME280;7210;51.502;10.722;2023-05-03T09:02:35;100927.56;;;11.45;62.96
14253;BME280;7210;51.502;10.722;2023-05-03T09:05:33;100945.53;;;11.56;62.94
14253;BME280;7210;51.502;10.722;2023-05-03T09:08:05;100894.84;;;11.59;61.96
14253;BME280;7210;51.502;10.722;2023-05-03T09:10:36;100918.69;;;11.72;61.72
14253;BME280;7210;51.502;10.722;2023-05-03T09:13:03;100937.47;;;11.77;61.80
14253;BME280;7210;51.502;10.722;2023-05-03T09:15:31;100965.81;;;11.89;61.73
14253;BME280;7210;51.502;10.722;2023-05-03T09:18:10;100844.72;;;11.77;60.31
14253;BME280;7210;51.502;10.722;2023-05-03T09:20:40;100829.41;;;11.79;59.50
14253;BME280;7210;51.502;10.722;2023-05-03T09:23:10;100830.25;;;11.86;58.83
14253;BME280;7210;51.502;10.722;2023-05-03T09:25:46;100765.00;;;11.72;58.21
14253;BME280;7210;51.502;10.722;2023-05-03T09:28:15;100782.75;;;11.78;58.00
14253;BME280;7210;51.502;10.722;2023-05-03T09:30:43;100802.53;;;11.82;57.81
14253;BME280;7210;51.502;10.722;2023-05-03T09:33:12;100753.59;;;11.78;57.07
14253;BME280;7210;51.502;10.722;2023-05-03T09:35:56;100769.91;;;11.75;57.22
14253;BME280;7210;51.502;10.722;2023-05-03T09:38:26;100825.75;;;11.80;57.70
14253;BME280;7210;51.502;10.722;2023-05-03T09:40:53;100858.75;;;11.97;57.29
14253;BME280;7210;51.502;10.722;2023-05-03T09:43:21;100856.94;;;12.04;57.14
14253;BME280;7210;51.502;10.722;2023-05-03T09:45:48;100811.88;;;12.04;56.45
14253;BME280;7210;51.502;10.722;2023-05-03T09:48:16;100861.63;;;12.15;56.57
14253;BME280;7210;51.502;10.722;2023-05-03T09:50:45;100898.94;;;12.33;56.54
14253;BME280;7210;51.502;10.722;2023-05-03T09:53:15;100901.78;;;12.44;55.92
14253;BME280;7210;51.502;10.722;2023-05-03T09:55:43;100929.72;;;12.60;56.16
14253;BME280;7210;51.502;10.722;2023-05-03T09:58:14;100933.75;;;12.75;55.64
14253;BME280;7210;51.502;10.722;2023-05-03T10:00:42;100925.16;;;12.93;55.17
14253;BME280;7210;51.502;10.722;2023-05-03T10:03:18;100945.16;;;13.02;55.42
14253;BME280;7210;51.502;10.722;2023-05-03T10:05:50;100842.25;;;12.84;54.27
14253;BME280;7210;51.502;10.722;2023-05-03T10:08:27;100916.34;;;13.05;54.54
14253;BME280;7210;51.502;10.722;2023-05-03T10:10:56;100833.84;;;13.07;53.40
14253;BME280;7210;51.502;10.722;2023-05-03T10:13:24;100847.69;;;13.09;53.54
14253;BME280;7210;51.502;10.722;2023-05-03T10:15:58;100801.09;;;13.13;52.74
14253;BME280;7210;51.502;10.722;2023-05-03T10:18:32;100831.72;;;13.22;52.77
14253;BME280;7210;51.502;10.722;2023-05-03T10:21:06;100831.31;;;13.18;52.83
14253;BME280;7210;51.502;10.722;2023-05-03T10:24:11;100815.16;;;13.20;52.71
14253;BME280;7210;51.502;10.722;2023-05-03T10:26:43;100950.75;;;13.38;53.79
14253;BME280;7210;51.502;10.722;2023-05-03T10:29:46;100976.41;;;13.57;53.94
14253;BME280;7210;51.502;10.722;2023-05-03T10:32:34;100924.63;;;13.66;52.78
14253;BME280;7210;51.502;10.722;2023-05-03T10:35:06;100827.91;;;13.67;51.68
14253;BME280;7210;51.502;10.722;2023-05-03T10:37:34;100907.13;;;13.83;52.18
14253;BME280;7210;51.502;10.722;2023-05-03T10:40:10;100986.03;;;13.89;53.22
14253;BME280;7210;51.502;10.722;2023-05-03T10:42:42;100953.75;;;13.85;52.76
14253;BME280;7210;51.502;10.722;2023-05-03T10:45:22;101060.19;;;14.10;53.89
14253;BME280;7210;51.502;10.722;2023-05-03T10:48:15;100909.28;;;13.99;52.24
14253;BME280;7210;51.502;10.722;2023-05-03T10:50:46;100924.72;;;14.15;51.77
14253;BME280;7210;51.502;10.722;2023-05-03T10:53:34;100921.91;;;14.34;51.26
14253;BME280;7210;51.502;10.722;2023-05-03T10:56:04;100926.41;;;14.34;51.47
14253;BME280;7210;51.502;10.722;2023-05-03T10:58:36;100963.19;;;14.43;51.94
14253;BME280;7210;51.502;10.722;2023-05-03T11:01:04;100944.19;;;14.58;51.23
14253;BME280;7210;51.502;10.722;2023-05-03T11:03:53;100945.81;;;14.59;51.63
14253;BME280;7210;51.502;10.722;2023-05-03T11:06:30;100884.16;;;14.62;50.51
14253;BME280;7210;51.502;10.722;2023-05-03T11:08:59;100852.94;;;14.51;50.61
14253;BME280;7210;51.502;10.722;2023-05-03T11:11:32;100959.59;;;14.74;51.28
14253;BME280;7210;51.502;10.722;2023-05-03T11:13:59;101036.44;;;14.95;51.81
14253;BME280;7210;51.502;10.722;2023-05-03T11:16:27;101046.03;;;15.20;51.31
14253;BME280;7210;51.502;10.722;2023-05-03T11:18:54;100957.25;;;15.37;49.76
14253;BME280;7210;51.502;10.722;2023-05-03T11:21:22;100853.47;;;15.24;49.20
14253;BME280;7210;51.502;10.722;2023-05-03T11:23:49;100833.09;;;15.01;49.78
14253;BME280;7210;51.502;10.722;2023-05-03T11:26:17;100905.09;;;15.12;50.03
14253;BME280;7210;51.502;10.722;2023-05-03T11:28:53;100934.00;;;15.26;50.34
14253;BME280;7210;51.502;10.722;2023-05-03T11:31:20;100863.41;;;15.35;49.16
14253;BME280;7210;51.502;10.722;2023-05-03T11:33:48;100852.38;;;15.61;48.16
14253;BME280;7210;51.502;10.722;2023-05-03T11:36:16;100809.22;;;15.64;47.76
14253;BME280;7210;51.502;10.722;2023-05-03T11:38:44;100831.13;;;15.55;48.34
14253;BME280;7210;51.502;10.722;2023-05-03T11:41:13;101042.03;;;15.83;50.71
14253;BME280;7210;51.502;10.722;2023-05-03T11:43:42;101010.31;;;16.04;49.57
14253;BME280;7210;51.502;10.722;2023-05-03T11:46:12;100924.47;;;16.07;48.60
14253;BME280;7210;51.502;10.722;2023-05-03T11:48:43;100909.75;;;16.16;48.26
14253;BME280;7210;51.502;10.722;2023-05-03T11:51:10;100828.28;;;16.25;47.00
14253;BME280;7210;51.502;10.722;2023-05-03T11:53:40;100729.34;;;16.04;46.73
14253;BME280;7210;51.502;10.722;2023-05-03T11:56:11;100836.88;;;16.04;48.02
14253;BME280;7210;51.502;10.722;2023-05-03T11:58:49;100877.13;;;16.14;48.15
14253;BME280;7210;51.502;10.722;2023-05-03T12:01:19;100874.72;;;16.13;48.01
14253;BME280;7210;51.502;10.722;2023-05-03T12:03:52;100862.88;;;16.20;47.46
14253;BME280;7210;51.502;10.722;2023-05-03T12:06:20;100927.81;;;16.55;47.37
14253;BME280;7210;51.502;10.722;2023-05-03T12:08:47;100895.63;;;16.50;47.65
14253;BME280;7210;51.502;10.722;2023-05-03T12:11:15;100770.97;;;16.16;47.08
14253;BME280;7210;51.502;10.722;2023-05-03T12:13:42;100912.34;;;16.46;47.47
14253;BME280;7210;51.502;10.722;2023-05-03T12:16:10;100864.63;;;16.49;47.23
14253;BME280;7210;51.502;10.722;2023-05-03T12:18:48;100838.72;;;16.61;46.34
14253;BME280;7210;51.502;10.722;2023-05-03T12:21:17;100879.44;;;16.80;46.63
14253;BME280;7210;51.502;10.722;2023-05-03T12:23:45;100855.84;;;16.88;46.09
14253;BME280;7210;51.502;10.722;2023-05-03T12:26:15;100847.94;;;16.93;46.09
14253;BME280;7210;51.502;10.722;2023-05-03T12:28:44;100968.25;;;17.21;47.00
14253;BME280;7210;51.502;10.722;2023-05-03T12:31:17;100975.19;;;17.45;46.87
14253;BME280;7210;51.502;10.722;2023-05-03T12:33:44;100758.59;;;17.17;44.88
14253;BME280;7210;51.502;10.722;2023-05-03T12:36:13;100875.84;;;17.53;45.36
14253;BME280;7210;51.502;10.722;2023-05-03T12:38:41;100945.84;;;17.90;45.54
14253;BME280;7210;51.502;10.722;2023-05-03T12:41:08;100913.38;;;18.03;45.15
14253;BME280;7210;51.502;10.722;2023-05-03T12:43:36;100783.13;;;17.92;43.72
14253;BME280;7210;51.502;10.722;2023-05-03T12:46:03;100788.63;;;17.85;44.27
14253;BME280;7210;51.502;10.722;2023-05-03T12:48:30;100858.88;;;18.09;44.74
14253;BME280;7210;51.502;10.722;2023-05-03T12:50:57;100768.59;;;18.04;43.71
14253;BME280;7210;51.502;10.722;2023-05-03T12:53:26;100858.69;;;18.15;44.47
14253;BME280;7210;51.502;10.722;2023-05-03T12:55:53;100889.69;;;18.44;44.04
14253;BME280;7210;51.502;10.722;2023-05-03T12:58:21;100926.78;;;18.69;44.22
14253;BME280;7210;51.502;10.722;2023-05-03T13:00:53;100985.00;;;18.73;45.07
14253;BME280;7210;51.502;10.722;2023-05-03T13:03:20;100913.81;;;18.44;45.62
14253;BME280;7210;51.502;10.722;2023-05-03T13:05:48;100828.16;;;18.49;43.87
14253;BME280;7210;51.502;10.722;2023-05-03T13:08:15;100792.44;;;18.44;43.53
14253;BME280;7210;51.502;10.722;2023-05-03T13:10:43;100783.38;;;18.28;43.66
14253;BME280;7210;51.502;10.722;2023-05-03T13:13:11;100831.50;;;18.40;44.20
14253;BME280;7210;51.502;10.722;2023-05-03T13:15:38;100830.41;;;18.57;43.76